sensor_id;sensor_type;location;lat;lon;timestamp;temperature;humidity
67354;SHT30;54238;52.278;21.056;2024-03-23T00:54:35;10.87;75.87
67354;SHT30;54238;52.278;21.056;2024-03-23T00:57:22;10.83;75.86
67354;SHT30;54238;52.278;21.056;2024-03-23T01:00:09;10.82;75.85
67354;SHT30;54238;52.278;21.056;2024-03-23T01:03:01;10.81;76.05
67354;SHT30;54238;52.278;21.056;2024-03-23T01:05:48;10.79;76.29
67354;SHT30;54238;52.278;21.056;2024-03-23T01:08:39;10.77;76.34
67354;SHT30;54238;52.278;21.056;2024-03-23T01:11:27;10.75;76.60
67354;SHT30;54238;52.278;21.056;2024-03-23T01:14:13;10.73;76.77
67354;SHT30;54238;52.278;21.056;2024-03-23T01:17:02;10.71;76.82
67354;SHT30;54238;52.278;21.056;2024-03-23T01:19:50;10.71;76.95
67354;SHT30;54238;52.278;21.056;2024-03-23T01:22:41;10.70;77.09
67354;SHT30;54238;52.278;21.056;2024-03-23T01:25:28;10.68;77.21
67354;SHT30;54238;52.278;21.056;2024-03-23T01:28:15;10.68;77.14
67354;SHT30;54238;52.278;21.056;2024-03-23T01:31:04;10.68;77.43
67354;SHT30;54238;52.278;21.056;2024-03-23T01:33:51;10.68;77.42
67354;SHT30;54238;52.278;21.056;2024-03-23T01:36:40;10.66;77.70
67354;SHT30;54238;52.278;21.056;2024-03-23T01:39:27;10.65;77.66
67354;SHT30;54238;52.278;21.056;2024-03-23T01:42:16;10.64;77.83
67354;SHT30;54238;52.278;21.056;2024-03-23T01:45:08;10.63;77.99
67354;SHT30;54238;52.278;21.056;2024-03-23T01:47:58;10.64;78.04
67354;SHT30;54238;52.278;21.056;2024-03-23T01:50:46;10.64;78.23
67354;SHT30;54238;52.278;21.056;2024-03-23T01:53:35;10.62;78.35
67354;SHT30;54238;52.278;21.056;2024-03-23T01:56:24;10.58;78.65
67354;SHT30;54238;52.278;21.056;2024-03-23T01:59:11;10.58;78.53
67354;SHT30;54238;52.278;21.056;2024-03-23T02:01:59;10.59;78.62
67354;SHT30;54238;52.278;21.056;2024-03-23T02:04:48;10.59;78.72
67354;SHT30;54238;52.278;21.056;2024-03-23T02:07:34;10.58;78.92
67354;SHT30;54238;52.278;21.056;2024-03-23T02:10:24;10.56;79.05
67354;SHT30;54238;52.278;21.056;2024-03-23T02:13:13;10.55;79.04
67354;SHT30;54238;52.278;21.056;2024-03-23T02:16:05;10.56;78.98
67354;SHT30;54238;52.278;21.056;2024-03-23T02:18:52;10.58;79.12
67354;SHT30;54238;52.278;21.056;2024-03-23T02:21:41;10.58;79.19
67354;SHT30;54238;52.278;21.056;2024-03-23T02:24:29;10.59;79.25
67354;SHT30;54238;52.278;21.056;2024-03-23T02:27:20;10.57;79.49
67354;SHT30;54238;52.278;21.056;2024-03-23T02:30:07;10.57;79.48
67354;SHT30;54238;52.278;21.056;2024-03-23T02:32:54;10.57;79.59
67354;SHT30;54238;52.278;21.056;2024-03-23T02:35:43;10.56;79.66
67354;SHT30;54238;52.278;21.056;2024-03-23T02:38:37;10.57;79.64
67354;SHT30;54238;52.278;21.056;2024-03-23T02:41:24;10.57;79.75
67354;SHT30;54238;52.278;21.056;2024-03-23T02:44:11;10.56;79.83
67354;SHT30;54238;52.278;21.056;2024-03-23T02:47:00;10.55;80.10
67354;SHT30;54238;52.278;21.056;2024-03-23T02:49:47;10.54;80.11
67354;SHT30;54238;52.278;21.056;2024-03-23T02:52:33;10.53;80.27
67354;SHT30;54238;52.278;21.056;2024-03-23T02:55:22;10.53;80.38
67354;SHT30;54238;52.278;21.056;2024-03-23T02:58:09;10.50;80.50
67354;SHT30;54238;52.278;21.056;2024-03-23T03:00:58;10.49;80.68
67354;SHT30;54238;52.278;21.056;2024-03-23T03:03:49;10.49;80.74
67354;SHT30;54238;52.278;21.056;2024-03-23T03:06:36;10.50;80.73
67354;SHT30;54238;52.278;21.056;2024-03-23T03:09:28;10.51;80.91
67354;SHT30;54238;52.278;21.056;2024-03-23T03:12:14;10.51;80.98
67354;SHT30;54238;52.278;21.056;2024-03-23T03:15:04;10.51;81.07
67354;SHT30;54238;52.278;21.056;2024-03-23T03:17:57;10.50;81.23
67354;SHT30;54238;52.278;21.056;2024-03-23T03:20:43;10.50;81.26
67354;SHT30;54238;52.278;21.056;2024-03-23T03:23:30;10.49;81.34
67354;SHT30;54238;52.278;21.056;2024-03-23T03:26:19;10.50;81.38
67354;SHT30;54238;52.278;21.056;2024-03-23T03:29:05;10.53;81.38
67354;SHT30;54238;52.278;21.056;2024-03-23T03:31:53;10.52;81.46
67354;SHT30;54238;52.278;21.056;2024-03-23T03:34:46;10.52;81.49
67354;SHT30;54238;52.278;21.056;2024-03-23T03:37:33;10.54;81.51
67354;SHT30;54238;52.278;21.056;2024-03-23T03:40:23;10.54;81.68
67354;SHT30;54238;52.278;21.056;2024-03-23T03:43:10;10.54;81.60
67354;SHT30;54238;52.278;21.056;2024-03-23T03:46:00;10.55;81.71
67354;SHT30;54238;52.278;21.056;2024-03-23T03:48:49;10.55;81.71
67354;SHT30;54238;52.278;21.056;2024-03-23T03:51:40;10.54;81.79
67354;SHT30;54238;52.278;21.056;2024-03-23T03:54:30;10.55;81.86
67354;SHT30;54238;52.278;21.056;2024-03-23T03:57:16;10.57;81.85
67354;SHT30;54238;52.278;21.056;2024-03-23T04:00:03;10.58;81.84
67354;SHT30;54238;52.278;21.056;2024-03-23T04:02:57;10.59;81.87
67354;SHT30;54238;52.278;21.056;2024-03-23T04:05:49;10.60;81.87
67354;SHT30;54238;52.278;21.056;2024-03-23T04:08:39;10.60;81.81
67354;SHT30;54238;52.278;21.056;2024-03-23T04:11:30;10.60;81.86
67354;SHT30;54238;52.278;21.056;2024-03-23T04:14:19;10.61;81.83
67354;SHT30;54238;52.278;21.056;2024-03-23T04:17:06;10.60;82.01
67354;SHT30;54238;52.278;21.056;2024-03-23T04:19:53;10.61;81.96
67354;SHT30;54238;52.278;21.056;2024-03-23T04:22:45;10.61;81.92
67354;SHT30;54238;52.278;21.056;2024-03-23T04:25:36;10.61;82.00
67354;SHT30;54238;52.278;21.056;2024-03-23T04:28:28;10.62;81.98
67354;SHT30;54238;52.278;21.056;2024-03-23T04:31:16;10.62;82.05
67354;SHT30;54238;52.278;21.056;2024-03-23T04:34:03;10.62;82.03
67354;SHT30;54238;52.278;21.056;2024-03-23T04:36:54;10.63;82.08
67354;SHT30;54238;52.278;21.056;2024-03-23T04:39:40;10.64;82.02
67354;SHT30;54238;52.278;21.056;2024-03-23T04:42:27;10.68;82.00
67354;SHT30;54238;52.278;21.056;2024-03-23T04:45:14;10.72;81.96
67354;SHT30;54238;52.278;21.056;2024-03-23T04:48:06;10.72;81.85
67354;SHT30;54238;52.278;21.056;2024-03-23T04:50:57;10.74;81.84
67354;SHT30;54238;52.278;21.056;2024-03-23T04:53:44;10.75;81.79
67354;SHT30;54238;52.278;21.056;2024-03-23T04:56:31;10.80;81.82
67354;SHT30;54238;52.278;21.056;2024-03-23T04:59:20;10.79;81.82
67354;SHT30;54238;52.278;21.056;2024-03-23T05:02:09;10.78;81.71
67354;SHT30;54238;52.278;21.056;2024-03-23T05:04:55;10.78;81.80
67354;SHT30;54238;52.278;21.056;2024-03-23T05:07:44;10.81;81.70
67354;SHT30;54238;52.278;21.056;2024-03-23T05:10:35;10.82;81.64
67354;SHT30;54238;52.278;21.056;2024-03-23T05:13:24;10.85;81.57
67354;SHT30;54238;52.278;21.056;2024-03-23T05:16:13;10.90;81.56
67354;SHT30;54238;52.278;21.056;2024-03-23T05:19:00;10.93;81.48
67354;SHT30;54238;52.278;21.056;2024-03-23T05:21:47;10.97;81.39
67354;SHT30;54238;52.278;21.056;2024-03-23T05:24:36;10.97;81.28
67354;SHT30;54238;52.278;21.056;2024-03-23T05:27:23;10.99;81.22
67354;SHT30;54238;52.278;21.056;2024-03-23T05:30:10;11.01;81.17
67354;SHT30;54238;52.278;21.056;2024-03-23T05:32:57;11.02;81.09
67354;SHT30;54238;52.278;21.056;2024-03-23T05:35:44;11.01;80.98
67354;SHT30;54238;52.278;21.056;2024-03-23T05:38:31;11.02;80.97
67354;SHT30;54238;52.278;21.056;2024-03-23T05:41:17;11.01;80.91
67354;SHT30;54238;52.278;21.056;2024-03-23T05:44:04;11.02;80.97
67354;SHT30;54238;52.278;21.056;2024-03-23T05:46:53;11.05;80.92
67354;SHT30;54238;52.278;21.056;2024-03-23T05:49:40;11.05;80.78
67354;SHT30;54238;52.278;21.056;2024-03-23T05:52:31;11.05;80.78
67354;SHT30;54238;52.278;21.056;2024-03-23T05:55:18;11.07;80.82
67354;SHT30;54238;52.278;21.056;2024-03-23T05:58:10;11.08;80.76
67354;SHT30;54238;52.278;21.056;2024-03-23T06:00:57;11.06;80.79
67354;SHT30;54238;52.278;21.056;2024-03-23T06:03:46;11.03;80.76
67354;SHT30;54238;52.278;21.056;2024-03-23T06:06:33;11.03;80.80
67354;SHT30;54238;52.278;21.056;2024-03-23T06:09:19;11.02;80.84
67354;SHT30;54238;52.278;21.056;2024-03-23T06:12:08;11.01;80.88
67354;SHT30;54238;52.278;21.056;2024-03-23T06:14:57;11.01;80.91
67354;SHT30;54238;52.278;21.056;2024-03-23T06:17:46;11.02;81.00
67354;SHT30;54238;52.278;21.056;2024-03-23T06:20:36;11.02;81.04
67354;SHT30;54238;52.278;21.056;2024-03-23T06:23:25;11.04;81.04
67354;SHT30;54238;52.278;21.056;2024-03-23T06:26:14;11.05;81.05
67354;SHT30;54238;52.278;21.056;2024-03-23T06:29:06;11.06;81.07
67354;SHT30;54238;52.278;21.056;2024-03-23T06:31:57;11.05;81.02
67354;SHT30;54238;52.278;21.056;2024-03-23T06:34:44;11.05;81.08
67354;SHT30;54238;52.278;21.056;2024-03-23T06:37:34;11.09;81.11
67354;SHT30;54238;52.278;21.056;2024-03-23T06:40:22;11.11;81.01
67354;SHT30;54238;52.278;21.056;2024-03-23T06:43:08;11.10;80.92
67354;SHT30;54238;52.278;21.056;2024-03-23T06:45:55;11.14;80.98
67354;SHT30;54238;52.278;21.056;2024-03-23T06:48:45;11.16;80.92
67354;SHT30;54238;52.278;21.056;2024-03-23T06:51:36;11.15;80.79
67354;SHT30;54238;52.278;21.056;2024-03-23T06:54:24;11.15;80.71
67354;SHT30;54238;52.278;21.056;2024-03-23T06:57:11;11.16;80.74
67354;SHT30;54238;52.278;21.056;2024-03-23T07:00:02;11.20;80.69
67354;SHT30;54238;52.278;21.056;2024-03-23T07:02:56;11.26;80.68
67354;SHT30;54238;52.278;21.056;2024-03-23T07:05:47;11.32;80.48
67354;SHT30;54238;52.278;21.056;2024-03-23T07:08:36;11.38;80.29
67354;SHT30;54238;52.278;21.056;2024-03-23T07:11:23;11.40;80.04
67354;SHT30;54238;52.278;21.056;2024-03-23T07:14:10;11.40;79.92
67354;SHT30;54238;52.278;21.056;2024-03-23T07:16:59;11.42;79.82
67354;SHT30;54238;52.278;21.056;2024-03-23T07:19:46;11.43;79.76
67354;SHT30;54238;52.278;21.056;2024-03-23T07:22:37;11.43;79.59
67354;SHT30;54238;52.278;21.056;2024-03-23T07:25:24;11.43;79.60
67354;SHT30;54238;52.278;21.056;2024-03-23T07:28:15;11.44;79.53
67354;SHT30;54238;52.278;21.056;2024-03-23T07:33:56;11.47;79.52
67354;SHT30;54238;52.278;21.056;2024-03-23T07:36:43;11.47;79.57
67354;SHT30;54238;52.278;21.056;2024-03-23T07:39:30;11.48;79.65
67354;SHT30;54238;52.278;21.056;2024-03-23T07:42:21;11.47;79.75
67354;SHT30;54238;52.278;21.056;2024-03-23T07:45:12;11.50;79.80
67354;SHT30;54238;52.278;21.056;2024-03-23T07:47:59;11.47;79.75
67354;SHT30;54238;52.278;21.056;2024-03-23T07:50:46;11.43;79.86
67354;SHT30;54238;52.278;21.056;2024-03-23T07:53:32;11.42;80.01
67354;SHT30;54238;52.278;21.056;2024-03-23T07:56:20;11.42;80.07
67354;SHT30;54238;52.278;21.056;2024-03-23T07:59:10;11.45;80.13
67354;SHT30;54238;52.278;21.056;2024-03-23T08:01:59;11.45;80.08
67354;SHT30;54238;52.278;21.056;2024-03-23T08:04:46;11.42;79.99
67354;SHT30;54238;52.278;21.056;2024-03-23T08:07:33;11.42;80.15
67354;SHT30;54238;52.278;21.056;2024-03-23T08:10:20;11.45;80.22
67354;SHT30;54238;52.278;21.056;2024-03-23T08:13:06;11.51;80.25
67354;SHT30;54238;52.278;21.056;2024-03-23T08:15:56;11.59;80.17
67354;SHT30;54238;52.278;21.056;2024-03-23T08:18:52;11.67;79.96
67354;SHT30;54238;52.278;21.056;2024-03-23T08:21:42;11.74;79.68
67354;SHT30;54238;52.278;21.056;2024-03-23T08:24:31;11.77;79.24
67354;SHT30;54238;52.278;21.056;2024-03-23T08:27:18;11.78;79.08
67354;SHT30;54238;52.278;21.056;2024-03-23T08:30:07;11.81;79.05
67354;SHT30;54238;52.278;21.056;2024-03-23T08:32:54;11.80;78.58
67354;SHT30;54238;52.278;21.056;2024-03-23T08:35:41;11.79;78.54
67354;SHT30;54238;52.278;21.056;2024-03-23T08:38:28;11.78;78.43
67354;SHT30;54238;52.278;21.056;2024-03-23T08:41:15;11.81;78.56
67354;SHT30;54238;52.278;21.056;2024-03-23T08:44:04;11.93;78.70
67354;SHT30;54238;52.278;21.056;2024-03-23T08:46:55;12.06;78.36
67354;SHT30;54238;52.278;21.056;2024-03-23T08:49:44;12.24;78.44
67354;SHT30;54238;52.278;21.056;2024-03-23T08:52:31;12.48;78.00
67354;SHT30;54238;52.278;21.056;2024-03-23T08:55:18;12.69;77.06
67354;SHT30;54238;52.278;21.056;2024-03-23T08:58:09;12.92;76.42
67354;SHT30;54238;52.278;21.056;2024-03-23T09:00:57;13.21;75.99
67354;SHT30;54238;52.278;21.056;2024-03-23T09:03:51;13.45;75.13
67354;SHT30;54238;52.278;21.056;2024-03-23T09:06:40;13.57;74.49
67354;SHT30;54238;52.278;21.056;2024-03-23T09:09:29;13.71;73.78
67354;SHT30;54238;52.278;21.056;2024-03-23T09:12:20;13.79;73.08
67354;SHT30;54238;52.278;21.056;2024-03-23T09:15:10;13.89;72.50
67354;SHT30;54238;52.278;21.056;2024-03-23T09:17:59;14.19;72.45
67354;SHT30;54238;52.278;21.056;2024-03-23T09:20:48;14.43;71.29
67354;SHT30;54238;52.278;21.056;2024-03-23T09:23:37;14.41;70.75
67354;SHT30;54238;52.278;21.056;2024-03-23T09:26:26;14.43;70.88
67354;SHT30;54238;52.278;21.056;2024-03-23T09:29:16;14.53;70.79
67354;SHT30;54238;52.278;21.056;2024-03-23T09:32:02;14.64;69.91
67354;SHT30;54238;52.278;21.056;2024-03-23T09:34:51;14.63;69.39
67354;SHT30;54238;52.278;21.056;2024-03-23T09:37:40;14.64;69.41
67354;SHT30;54238;52.278;21.056;2024-03-23T09:40:30;14.60;69.37
67354;SHT30;54238;52.278;21.056;2024-03-23T09:43:20;14.57;69.47
67354;SHT30;54238;52.278;21.056;2024-03-23T09:46:07;14.57;69.09
67354;SHT30;54238;52.278;21.056;2024-03-23T09:48:56;14.55;69.07
67354;SHT30;54238;52.278;21.056;2024-03-23T09:51:51;14.53;69.11
67354;SHT30;54238;52.278;21.056;2024-03-23T09:54:41;14.54;68.98
67354;SHT30;54238;52.278;21.056;2024-03-23T09:57:28;14.66;69.07
67354;SHT30;54238;52.278;21.056;2024-03-23T10:00:15;14.91;68.85
67354;SHT30;54238;52.278;21.056;2024-03-23T10:03:05;15.27;67.76
67354;SHT30;54238;52.278;21.056;2024-03-23T10:06:00;15.94;66.42
67354;SHT30;54238;52.278;21.056;2024-03-23T10:08:53;16.60;65.03
67354;SHT30;54238;52.278;21.056;2024-03-23T10:11:42;17.22;63.54
67354;SHT30;54238;52.278;21.056;2024-03-23T10:14:36;17.80;62.08
67354;SHT30;54238;52.278;21.056;2024-03-23T10:17:23;18.28;59.15
67354;SHT30;54238;52.278;21.056;2024-03-23T10:20:12;18.39;58.38
67354;SHT30;54238;52.278;21.056;2024-03-23T10:23:05;18.72;58.13
67354;SHT30;54238;52.278;21.056;2024-03-23T10:26:24;19.54;56.79
67354;SHT30;54238;52.278;21.056;2024-03-23T10:29:14;20.22;52.86
67354;SHT30;54238;52.278;21.056;2024-03-23T10:32:12;20.54;52.34
67354;SHT30;54238;52.278;21.056;2024-03-23T10:35:14;20.97;51.13
67354;SHT30;54238;52.278;21.056;2024-03-23T10:38:05;21.40;50.49
67354;SHT30;54238;52.278;21.056;2024-03-23T10:40:54;21.67;49.69
67354;SHT30;54238;52.278;21.056;2024-03-23T10:43:44;21.64;48.71
67354;SHT30;54238;52.278;21.056;2024-03-23T10:46:35;21.83;48.37
67354;SHT30;54238;52.278;21.056;2024-03-23T10:49:25;21.58;48.39
67354;SHT30;54238;52.278;21.056;2024-03-23T10:52:16;21.67;48.99
67354;SHT30;54238;52.278;21.056;2024-03-23T10:55:05;22.12;48.45
67354;SHT30;54238;52.278;21.056;2024-03-23T10:57:58;22.61;45.95
67354;SHT30;54238;52.278;21.056;2024-03-23T11:00:50;23.00;44.79
67354;SHT30;54238;52.278;21.056;2024-03-23T11:03:44;23.42;44.51
67354;SHT30;54238;52.278;21.056;2024-03-23T11:06:38;23.90;43.01
67354;SHT30;54238;52.278;21.056;2024-03-23T11:12:26;24.41;41.78
67354;SHT30;54238;52.278;21.056;2024-03-23T11:15:18;24.83;40.33
67354;SHT30;54238;52.278;21.056;2024-03-23T11:18:09;24.86;39.45
67354;SHT30;54238;52.278;21.056;2024-03-23T11:20:56;25.02;39.07
67354;SHT30;54238;52.278;21.056;2024-03-23T11:23:45;25.32;38.30
67354;SHT30;54238;52.278;21.056;2024-03-23T11:26:32;25.65;38.10
67354;SHT30;54238;52.278;21.056;2024-03-23T11:29:27;26.02;37.22
67354;SHT30;54238;52.278;21.056;2024-03-23T11:32:16;26.30;36.49
67354;SHT30;54238;52.278;21.056;2024-03-23T11:35:03;26.24;35.84
67354;SHT30;54238;52.278;21.056;2024-03-23T11:40:51;24.50;38.22
67354;SHT30;54238;52.278;21.056;2024-03-23T11:43:41;23.58;39.28
67354;SHT30;54238;52.278;21.056;2024-03-23T11:46:27;22.88;40.71
67354;SHT30;54238;52.278;21.056;2024-03-23T11:49:24;22.31;41.29
67354;SHT30;54238;52.278;21.056;2024-03-23T11:52:13;21.61;42.81
67354;SHT30;54238;52.278;21.056;2024-03-23T11:55:05;21.12;43.47
67354;SHT30;54238;52.278;21.056;2024-03-23T11:57:54;20.67;44.04
67354;SHT30;54238;52.278;21.056;2024-03-23T12:00:41;20.35;44.83
67354;SHT30;54238;52.278;21.056;2024-03-23T12:03:44;20.36;44.49
67354;SHT30;54238;52.278;21.056;2024-03-23T12:06:30;20.36;44.45
67354;SHT30;54238;52.278;21.056;2024-03-23T12:09:17;20.06;44.84
67354;SHT30;54238;52.278;21.056;2024-03-23T12:12:24;19.81;45.81
67354;SHT30;54238;52.278;21.056;2024-03-23T12:15:13;19.60;45.79
67354;SHT30;54238;52.278;21.056;2024-03-23T12:18:07;19.38;45.65
67354;SHT30;54238;52.278;21.056;2024-03-23T12:20:56;19.15;45.53
67354;SHT30;54238;52.278;21.056;2024-03-23T12:23:45;19.18;45.44
67354;SHT30;54238;52.278;21.056;2024-03-23T12:26:36;19.24;44.80
67354;SHT30;54238;52.278;21.056;2024-03-23T12:29:24;19.16;45.51
67354;SHT30;54238;52.278;21.056;2024-03-23T12:32:14;19.17;45.28
67354;SHT30;54238;52.278;21.056;2024-03-23T12:35:02;19.15;45.73
67354;SHT30;54238;52.278;21.056;2024-03-23T12:37:49;19.10;45.28
67354;SHT30;54238;52.278;21.056;2024-03-23T12:40:38;18.89;44.72
67354;SHT30;54238;52.278;21.056;2024-03-23T12:43:27;18.66;45.25
67354;SHT30;54238;52.278;21.056;2024-03-23T12:46:15;18.48;45.57
67354;SHT30;54238;52.278;21.056;2024-03-23T12:49:03;18.37;45.63
67354;SHT30;54238;52.278;21.056;2024-03-23T12:51:54;18.22;45.99
67354;SHT30;54238;52.278;21.056;2024-03-23T12:54:42;18.14;46.58
67354;SHT30;54238;52.278;21.056;2024-03-23T12:57:29;18.09;47.10
67354;SHT30;54238;52.278;21.056;2024-03-23T13:00:16;18.02;46.95
67354;SHT30;54238;52.278;21.056;2024-03-23T13:03:03;17.91;47.32
67354;SHT30;54238;52.278;21.056;2024-03-23T13:05:54;17.82;47.64
67354;SHT30;54238;52.278;21.056;2024-03-23T13:08:44;17.72;47.73
67354;SHT30;54238;52.278;21.056;2024-03-23T13:11:38;17.63;48.31
67354;SHT30;54238;52.278;21.056;2024-03-23T13:14:27;17.61;48.45
67354;SHT30;54238;52.278;21.056;2024-03-23T13:17:19;17.59;48.63
67354;SHT30;54238;52.278;21.056;2024-03-23T13:20:08;17.57;48.83
67354;SHT30;54238;52.278;21.056;2024-03-23T13:23:02;17.56;48.75
67354;SHT30;54238;52.278;21.056;2024-03-23T13:25:51;17.54;49.01
67354;SHT30;54238;52.278;21.056;2024-03-23T13:28:43;17.50;48.97
67354;SHT30;54238;52.278;21.056;2024-03-23T13:31:32;17.48;49.39
67354;SHT30;54238;52.278;21.056;2024-03-23T13:34:21;17.49;49.33
67354;SHT30;54238;52.278;21.056;2024-03-23T13:37:10;17.51;49.26
67354;SHT30;54238;52.278;21.056;2024-03-23T13:39:56;17.57;49.34
67354;SHT30;54238;52.278;21.056;2024-03-23T13:42:45;17.60;49.27
67354;SHT30;54238;52.278;21.056;2024-03-23T13:45:32;17.68;49.33
67354;SHT30;54238;52.278;21.056;2024-03-23T13:48:23;17.75;49.23
67354;SHT30;54238;52.278;21.056;2024-03-23T13:51:12;17.81;49.16
67354;SHT30;54238;52.278;21.056;2024-03-23T13:54:01;17.85;49.05
67354;SHT30;54238;52.278;21.056;2024-03-23T13:56:51;17.87;49.03
67354;SHT30;54238;52.278;21.056;2024-03-23T13:59:41;17.89;48.93
67354;SHT30;54238;52.278;21.056;2024-03-23T14:02:28;17.88;48.99
67354;SHT30;54238;52.278;21.056;2024-03-23T14:05:17;17.84;49.02
67354;SHT30;54238;52.278;21.056;2024-03-23T14:08:06;17.82;49.03
67354;SHT30;54238;52.278;21.056;2024-03-23T14:10:58;17.78;49.21
67354;SHT30;54238;52.278;21.056;2024-03-23T14:13:45;17.73;49.28
67354;SHT30;54238;52.278;21.056;2024-03-23T14:16:31;17.71;49.41
67354;SHT30;54238;52.278;21.056;2024-03-23T14:19:20;17.69;49.54
67354;SHT30;54238;52.278;21.056;2024-03-23T14:22:09;17.64;49.66
67354;SHT30;54238;52.278;21.056;2024-03-23T14:25:01;17.61;49.98
67354;SHT30;54238;52.278;21.056;2024-03-23T14:27:52;17.58;50.06
67354;SHT30;54238;52.278;21.056;2024-03-23T14:30:41;17.57;49.92
67354;SHT30;54238;52.278;21.056;2024-03-23T14:33:28;17.55;50.00
67354;SHT30;54238;52.278;21.056;2024-03-23T14:36:15;17.54;50.37
67354;SHT30;54238;52.278;21.056;2024-03-23T14:39:04;17.53;50.75
67354;SHT30;54238;52.278;21.056;2024-03-23T14:41:54;17.50;50.68
67354;SHT30;54238;52.278;21.056;2024-03-23T14:44:43;17.45;50.80
67354;SHT30;54238;52.278;21.056;2024-03-23T14:47:35;17.40;50.39
67354;SHT30;54238;52.278;21.056;2024-03-23T14:50:24;17.35;50.37
67354;SHT30;54238;52.278;21.056;2024-03-23T14:53:13;17.32;50.48
67354;SHT30;54238;52.278;21.056;2024-03-23T14:56:03;17.29;50.82
67354;SHT30;54238;52.278;21.056;2024-03-23T14:58:53;17.25;51.10
67354;SHT30;54238;52.278;21.056;2024-03-23T15:01:42;17.23;51.45
67354;SHT30;54238;52.278;21.056;2024-03-23T15:04:31;17.17;51.84
67354;SHT30;54238;52.278;21.056;2024-03-23T15:07:18;17.09;52.39
67354;SHT30;54238;52.278;21.056;2024-03-23T15:10:05;17.03;52.90
67354;SHT30;54238;52.278;21.056;2024-03-23T15:12:56;16.92;53.94
67354;SHT30;54238;52.278;21.056;2024-03-23T15:15:45;16.76;55.65
67354;SHT30;54238;52.278;21.056;2024-03-23T15:18:35;16.56;57.62
67354;SHT30;54238;52.278;21.056;2024-03-23T15:21:29;16.22;60.43
67354;SHT30;54238;52.278;21.056;2024-03-23T15:24:17;15.79;64.80
67354;SHT30;54238;52.278;21.056;2024-03-23T15:27:09;15.34;66.09
67354;SHT30;54238;52.278;21.056;2024-03-23T15:29:55;15.01;67.15
67354;SHT30;54238;52.278;21.056;2024-03-23T15:32:43;14.74;68.26
67354;SHT30;54238;52.278;21.056;2024-03-23T15:35:30;14.51;68.92
67354;SHT30;54238;52.278;21.056;2024-03-23T15:38:20;14.33;69.72
67354;SHT30;54238;52.278;21.056;2024-03-23T15:41:07;14.12;70.56
67354;SHT30;54238;52.278;21.056;2024-03-23T15:43:54;13.96;70.75
67354;SHT30;54238;52.278;21.056;2024-03-23T15:46:41;13.82;71.09
67354;SHT30;54238;52.278;21.056;2024-03-23T15:49:30;13.67;71.44
67354;SHT30;54238;52.278;21.056;2024-03-23T15:52:17;13.58;71.80
67354;SHT30;54238;52.278;21.056;2024-03-23T15:55:06;13.46;72.24
67354;SHT30;54238;52.278;21.056;2024-03-23T15:57:58;13.38;72.32
67354;SHT30;54238;52.278;21.056;2024-03-23T16:00:44;13.31;72.77
67354;SHT30;54238;52.278;21.056;2024-03-23T16:04:02;13.22;73.04
67354;SHT30;54238;52.278;21.056;2024-03-23T16:06:54;13.15;72.97
67354;SHT30;54238;52.278;21.056;2024-03-23T16:09:45;13.10;73.09
67354;SHT30;54238;52.278;21.056;2024-03-23T16:12:32;13.07;72.78
67354;SHT30;54238;52.278;21.056;2024-03-23T16:15:21;13.07;72.65
67354;SHT30;54238;52.278;21.056;2024-03-23T16:18:08;13.07;72.81
67354;SHT30;54238;52.278;21.056;2024-03-23T16:20:56;13.08;72.65
67354;SHT30;54238;52.278;21.056;2024-03-23T16:23:49;13.09;72.70
67354;SHT30;54238;52.278;21.056;2024-03-23T16:26:38;13.06;73.06
67354;SHT30;54238;52.278;21.056;2024-03-23T16:29:27;13.02;73.12
67354;SHT30;54238;52.278;21.056;2024-03-23T16:32:18;13.01;73.12
67354;SHT30;54238;52.278;21.056;2024-03-23T16:35:09;13.02;73.18
67354;SHT30;54238;52.278;21.056;2024-03-23T16:37:58;13.05;73.17
67354;SHT30;54238;52.278;21.056;2024-03-23T16:40:57;13.09;73.29
67354;SHT30;54238;52.278;21.056;2024-03-23T16:43:48;13.11;73.32
67354;SHT30;54238;52.278;21.056;2024-03-23T16:46:35;13.13;73.38
67354;SHT30;54238;52.278;21.056;2024-03-23T16:49:26;13.16;73.34
67354;SHT30;54238;52.278;21.056;2024-03-23T16:52:13;13.20;73.38
67354;SHT30;54238;52.278;21.056;2024-03-23T16:55:02;13.22;73.42
67354;SHT30;54238;52.278;21.056;2024-03-23T16:57:51;13.21;73.12
67354;SHT30;54238;52.278;21.056;2024-03-23T17:00:43;13.20;73.17
67354;SHT30;54238;52.278;21.056;2024-03-23T17:03:35;13.20;73.25
67354;SHT30;54238;52.278;21.056;2024-03-23T17:06:24;13.20;73.29
67354;SHT30;54238;52.278;21.056;2024-03-23T17:09:14;13.19;73.20
67354;SHT30;54238;52.278;21.056;2024-03-23T17:12:03;13.16;73.21
67354;SHT30;54238;52.278;21.056;2024-03-23T17:14:54;13.16;73.16
67354;SHT30;54238;52.278;21.056;2024-03-23T17:17:43;13.16;73.12
67354;SHT30;54238;52.278;21.056;2024-03-23T17:20:30;13.15;73.01
67354;SHT30;54238;52.278;21.056;2024-03-23T17:26:16;13.14;73.06
67354;SHT30;54238;52.278;21.056;2024-03-23T17:28:49;13.11;73.10
67354;SHT30;54238;52.278;21.056;2024-03-23T17:31:21;13.09;73.17
67354;SHT30;54238;52.278;21.056;2024-03-23T17:34:10;13.05;73.21
67354;SHT30;54238;52.278;21.056;2024-03-23T17:36:59;13.02;73.32
67354;SHT30;54238;52.278;21.056;2024-03-23T17:39:32;13.00;73.38
67354;SHT30;54238;52.278;21.056;2024-03-23T17:42:03;13.00;73.34
67354;SHT30;54238;52.278;21.056;2024-03-23T17:44:35;13.01;73.44
67354;SHT30;54238;52.278;21.056;2024-03-23T17:47:07;13.01;73.61
67354;SHT30;54238;52.278;21.056;2024-03-23T17:49:34;13.00;73.62
67354;SHT30;54238;52.278;21.056;2024-03-23T17:52:07;12.98;73.67
67354;SHT30;54238;52.278;21.056;2024-03-23T17:54:37;12.96;73.67
67354;SHT30;54238;52.278;21.056;2024-03-23T17:57:07;12.92;73.85
67354;SHT30;54238;52.278;21.056;2024-03-23T17:59:37;12.91;73.96
67354;SHT30;54238;52.278;21.056;2024-03-23T18:02:06;12.89;73.91
67354;SHT30;54238;52.278;21.056;2024-03-23T18:04:33;12.87;73.87
67354;SHT30;54238;52.278;21.056;2024-03-23T18:07:05;12.87;73.60
67354;SHT30;54238;52.278;21.056;2024-03-23T18:09:32;12.87;73.43
67354;SHT30;54238;52.278;21.056;2024-03-23T18:12:04;12.86;73.56
67354;SHT30;54238;52.278;21.056;2024-03-23T18:14:34;12.81;73.27
67354;SHT30;54238;52.278;21.056;2024-03-23T18:17:04;12.72;72.28
67354;SHT30;54238;52.278;21.056;2024-03-23T18:19:33;12.69;72.16
67354;SHT30;54238;52.278;21.056;2024-03-23T18:22:03;12.66;72.26
67354;SHT30;54238;52.278;21.056;2024-03-23T18:24:33;12.60;71.81
67354;SHT30;54238;52.278;21.056;2024-03-23T18:27:03;12.52;71.68
67354;SHT30;54238;52.278;21.056;2024-03-23T18:29:32;12.47;71.68